Time;durP1;ratioP1;P1;durP2;ratioP2;P2;SDS_P1;SDS_P2;PMS_P1;PMS_P2;Temp;Humidity;BMP_temperature;BMP_pressure;BME280_temperature;BME280_humidity;BME280_pressure;Samples;Min_cycle;Max_cycle;Signal;HPM_P1;HPM_P2
2021/12/17 00:04:49;;;;;;;0.00;0.00;;;;;;;6.54;90.75;104180.91;5016785;28;20077;-75
2021/12/17 00:07:15;;;;;;;0.03;0.03;;;;;;;6.53;90.92;104182.59;5016701;28;20057;-76
2021/12/17 00:09:43;;;;;;;0.00;0.00;;;;;;;6.54;90.83;104183.50;5015819;28;20072;-76
2021/12/17 00:12:14;;;;;;;0.00;0.00;;;;;;;6.52;90.74;104188.56;5016560;28;20025;-75
2021/12/17 00:14:42;;;;;;;0.00;0.00;;;;;;;6.52;90.81;104188.56;5016292;28;20389;-75
2021/12/17 00:17:12;;;;;;;0.00;0.00;;;;;;;6.52;90.88;104185.03;5018583;28;20026;-76
2021/12/17 00:20:00;;;;;;;0.00;0.00;;;;;;;6.52;90.82;104188.56;5019547;28;20105;-76
2021/12/17 00:49:34;;;;;;;0.00;0.00;;;;;;;6.51;90.85;104198.81;5018813;28;20029;-75
2021/12/17 00:52:01;;;;;;;0.00;0.00;;;;;;;6.50;90.71;104189.16;5018872;28;20334;-75
2021/12/17 00:54:35;;;;;;;0.00;0.00;;;;;;;6.49;90.79;104188.28;5018756;28;20022;-75
2021/12/17 00:57:07;;;;;;;0.10;0.10;;;;;;;6.48;90.79;104194.25;5019329;28;20080;-75
2021/12/17 00:59:33;;;;;;;0.00;0.00;;;;;;;6.47;90.56;104184.56;5018804;28;20034;-76
2021/12/17 01:02:02;;;;;;;0.00;0.00;;;;;;;6.48;90.68;104189.03;5019452;28;20456;-75
2021/12/17 01:04:27;;;;;;;0.00;0.00;;;;;;;6.46;90.71;104191.47;5018279;28;20117;-75
2021/12/17 01:06:53;;;;;;;0.00;0.00;;;;;;;6.46;90.72;104194.09;5019566;28;20347;-75
2021/12/17 01:09:21;;;;;;;0.07;0.07;;;;;;;6.46;90.64;104195.75;5019290;28;20076;-75
2021/12/17 01:11:47;;;;;;;0.10;0.10;;;;;;;6.45;90.64;104191.31;5019299;28;20061;-76
2021/12/17 01:14:12;;;;;;;0.00;0.00;;;;;;;6.45;91.07;104187.03;5018348;28;20121;-75
2021/12/17 01:16:38;;;;;;;0.07;0.07;;;;;;;6.45;90.90;104183.50;5019213;28;20300;-76
2021/12/17 01:25:09;;;;;;;0.00;0.00;;;;;;;6.44;90.77;104180.00;5019425;28;20100;-76
2021/12/17 01:35:27;;;;;;;0.00;0.00;;;;;;;6.44;90.63;104177.41;5018890;28;20045;-75
2021/12/17 01:39:02;;;;;;;0.03;0.03;;;;;;;6.42;90.71;104178.91;5002593;28;20034;-75
2021/12/17 01:43:38;;;;;;;0.00;0.00;;;;;;;6.43;90.61;104198.06;5017167;28;20363;-75
2021/12/17 01:46:06;;;;;;;0.07;0.07;;;;;;;6.45;90.81;104199.13;5018027;28;20121;-75
2021/12/17 01:48:49;;;;;;;0.00;0.00;;;;;;;6.45;90.83;104189.66;5002296;28;20422;-75
2021/12/17 01:56:54;;;;;;;0.00;0.00;;;;;;;6.44;90.89;104187.81;5017606;28;20044;-75
2021/12/17 01:59:39;;;;;;;;;;;;;;;6.43;90.78;104183.34;5018240;28;20014;-75
2021/12/17 02:02:07;;;;;;;0.00;0.00;;;;;;;6.42;90.79;104181.53;5005166;28;19911;-76
2021/12/17 02:04:34;;;;;;;0.00;0.00;;;;;;;6.42;90.82;104184.13;4998431;28;20022;-75
2021/12/17 02:07:01;;;;;;;0.00;0.00;;;;;;;6.42;90.63;104183.22;5001782;28;20293;-75
2021/12/17 02:21:17;;;;;;;0.00;0.00;;;;;;;6.43;90.62;104178.16;4958715;29;20035;-75
2021/12/17 02:31:42;;;;;;;0.00;0.00;;;;;;;6.42;90.75;104168.50;5017210;28;20061;-74
2021/12/17 02:36:45;;;;;;;0.10;0.10;;;;;;;6.44;90.61;104167.00;5017784;28;20037;-74
2021/12/17 02:39:44;;;;;;;0.00;0.00;;;;;;;6.44;90.69;104171.25;5017915;28;20028;-74
2021/12/17 02:47:27;;;;;;;0.00;0.00;;;;;;;6.47;91.02;104181.97;5017804;28;20044;-74
2021/12/17 02:49:52;;;;;;;0.00;0.00;;;;;;;6.48;90.50;104183.84;5017675;28;20109;-75
2021/12/17 02:52:18;;;;;;;0.10;0.10;;;;;;;6.49;90.54;104184.72;5017150;28;20025;-75
2021/12/17 02:54:43;;;;;;;0.00;0.00;;;;;;;6.49;90.77;104175.25;5000376;28;20030;-75
2021/12/17 02:57:11;;;;;;;0.00;0.00;;;;;;;6.61;90.63;104178.16;5017127;28;20489;-74
2021/12/17 02:59:37;;;;;;;0.03;0.03;;;;;;;6.58;90.45;104175.22;5016333;28;20118;-75
2021/12/17 03:02:04;;;;;;;0.00;0.00;;;;;;;6.56;90.48;104176.75;5017674;28;20047;-76
2021/12/17 03:04:31;;;;;;;0.00;0.00;;;;;;;6.54;90.55;104174.00;5017563;28;20021;-74
2021/12/17 03:06:57;;;;;;;0.00;0.00;;;;;;;6.53;90.36;104172.16;5018073;28;20302;-74
2021/12/17 03:09:47;;;;;;;0.00;0.00;;;;;;;6.54;90.46;104167.88;5017814;28;20068;-72
2021/12/17 03:12:18;;;;;;;0.03;0.03;;;;;;;6.53;90.23;104169.56;5019691;28;20033;-74
2021/12/17 03:14:51;;;;;;;0.00;0.00;;;;;;;6.52;90.16;104166.78;5017362;28;20041;-74
2021/12/17 03:17:30;;;;;;;0.00;0.00;;;;;;;6.50;90.38;104169.28;5019309;28;20022;-75
2021/12/17 03:25:05;;;;;;;0.10;0.10;;;;;;;6.48;90.43;104167.28;5018874;28;20452;-75
2021/12/17 03:27:31;;;;;;;0.00;0.00;;;;;;;6.47;90.15;104163.75;5017085;28;20057;-76
2021/12/17 03:29:56;;;;;;;0.00;0.00;;;;;;;6.48;90.04;104162.06;5006466;28;20057;-73
2021/12/17 03:32:22;;;;;;;0.00;0.00;;;;;;;6.48;90.01;104168.22;4997172;28;20023;-74
2021/12/17 03:34:47;;;;;;;0.10;0.10;;;;;;;6.49;90.17;104176.91;4997667;28;20292;-74
2021/12/17 03:37:12;;;;;;;0.03;0.03;;;;;;;6.48;90.10;104168.22;4997763;28;20352;-75
2021/12/17 03:39:38;;;;;;;0.07;0.07;;;;;;;6.49;90.07;104171.72;4999690;28;20053;-74
2021/12/17 03:42:06;;;;;;;0.00;0.00;;;;;;;6.49;90.00;104172.66;5017624;28;20029;-74
2021/12/17 03:44:32;;;;;;;0.10;0.10;;;;;;;6.54;90.15;104170.50;5016662;28;20018;-74
2021/12/17 03:46:58;;;;;;;0.40;0.40;;;;;;;6.55;89.95;104167.13;5017921;28;20057;-74
2021/12/17 03:49:24;;;;;;;0.00;0.00;;;;;;;6.51;89.88;104168.50;5016969;28;20125;-75
2021/12/17 03:52:08;;;;;;;0.00;0.00;;;;;;;6.53;89.76;104174.78;5017423;28;20022;-74
2021/12/17 03:54:34;;;;;;;0.10;0.10;;;;;;;6.50;90.04;104177.09;5020742;28;20080;-75
2021/12/17 03:57:00;;;;;;;0.10;0.10;;;;;;;6.56;89.90;104169.88;5020292;28;20032;-74
2021/12/17 03:59:26;;;;;;;0.10;0.10;;;;;;;6.56;89.89;104169.88;5003198;28;20026;-75
2021/12/17 04:01:51;;;;;;;0.00;0.00;;;;;;;6.53;90.10;104169.56;5021174;28;20300;-75
2021/12/17 04:04:17;;;;;;;0.00;0.00;;;;;;;6.52;89.89;104183.34;5020911;28;20053;-74
2021/12/17 04:06:42;;;;;;;0.00;0.00;;;;;;;6.52;89.81;104182.41;5019074;28;20121;-75
2021/12/17 04:09:09;;;;;;;0.00;0.00;;;;;;;6.49;89.92;104183.06;5020972;28;20464;-74
2021/12/17 04:11:34;;;;;;;0.00;0.00;;;;;;;6.46;89.91;104186.28;5020583;28;20304;-74
2021/12/17 04:14:00;;;;;;;0.00;0.00;;;;;;;6.48;89.81;104180.31;5020317;28;20030;-75
2021/12/17 04:16:30;;;;;;;0.00;0.00;;;;;;;6.46;89.61;104188.88;5020486;28;20037;-74
2021/12/17 04:18:56;;;;;;;0.00;0.00;;;;;;;6.45;89.38;104191.31;5019355;28;20065;-75
2021/12/17 04:21:21;;;;;;;0.00;0.00;;;;;;;6.41;89.74;104191.81;5020761;28;20400;-74
2021/12/17 04:23:49;;;;;;;0.00;0.00;;;;;;;6.41;89.74;104186.59;5020345;28;20149;-74
2021/12/17 04:26:16;;;;;;;0.10;0.10;;;;;;;6.44;89.90;104182.63;5020323;28;20105;-74
2021/12/17 04:28:45;;;;;;;0.00;0.00;;;;;;;6.41;89.30;104182.28;5018398;28;20022;-75
2021/12/17 04:31:11;;;;;;;0.10;0.10;;;;;;;6.48;89.73;104191.66;5020575;28;20101;-75
2021/12/17 04:33:38;;;;;;;0.03;0.03;;;;;;;6.49;89.57;104188.28;5020232;28;20169;-75
2021/12/17 04:36:04;;;;;;;0.10;0.10;;;;;;;6.41;89.32;104186.59;5020550;28;20339;-76
2021/12/17 04:38:30;;;;;;;0.00;0.00;;;;;;;6.46;89.24;104191.47;5019349;28;20029;-75
2021/12/17 04:41:03;;;;;;;0.10;0.10;;;;;;;6.40;89.24;104193.47;5019550;28;20030;-74
2021/12/17 04:43:40;;;;;;;0.07;0.07;;;;;;;6.36;89.48;104191.34;5019004;28;20040;-76
2021/12/17 04:59:35;;;;;;;0.03;0.03;;;;;;;6.28;89.60;104190.56;5018490;28;20395;-73
2021/12/17 05:02:02;;;;;;;0.00;0.00;;;;;;;6.29;89.72;104178.47;5019746;28;20034;-73
2021/12/17 05:04:28;;;;;;;0.00;0.00;;;;;;;6.30;89.66;104185.53;5016952;28;20372;-74
2021/12/17 05:06:53;;;;;;;0.00;0.00;;;;;;;6.32;89.78;104184.91;5019682;28;20108;-73
2021/12/17 05:09:29;;;;;;;0.00;0.00;;;;;;;6.34;89.62;104185.03;5019406;28;20030;-73
2021/12/17 05:20:22;;;;;;;0.10;0.10;;;;;;;6.27;89.59;104178.31;5019325;28;20044;-74
2021/12/17 05:22:52;;;;;;;0.00;0.00;;;;;;;6.26;89.70;104183.38;5018974;28;20447;-74
2021/12/17 05:25:17;;;;;;;0.00;0.00;;;;;;;6.26;89.94;104180.75;5019378;28;20032;-74
2021/12/17 05:27:43;;;;;;;0.00;0.00;;;;;;;6.25;89.71;104173.72;5018816;28;20112;-75
2021/12/17 05:30:09;;;;;;;0.00;0.00;;;;;;;6.26;89.87;104171.28;5018992;28;20034;-73
2021/12/17 05:32:34;;;;;;;0.77;0.77;;;;;;;6.32;89.74;104171.91;5018151;28;20403;-74
2021/12/17 05:35:00;;;;;;;0.07;0.07;;;;;;;6.31;89.81;104169.13;5018522;28;20049;-74
2021/12/17 05:37:25;;;;;;;0.00;0.00;;;;;;;6.30;89.73;104170.81;5018805;28;20030;-73
2021/12/17 05:39:50;;;;;;;0.00;0.00;;;;;;;6.29;89.77;104171.56;5018844;28;20109;-75
2021/12/17 05:42:18;;;;;;;0.00;0.00;;;;;;;6.29;89.87;104175.88;5019083;28;20036;-73
2021/12/17 05:44:50;;;;;;;0.00;0.00;;;;;;;6.29;89.67;104183.69;5017610;28;20022;-73
2021/12/17 05:47:15;;;;;;;0.00;0.00;;;;;;;6.28;89.79;104195.78;5018883;28;20117;-75
2021/12/17 05:49:41;;;;;;;0.00;0.00;;;;;;;6.30;89.89;104193.34;5017802;28;20048;-75
2021/12/17 05:52:06;;;;;;;0.10;0.10;;;;;;;6.27;89.71;104196.53;5018824;28;20042;-74
2021/12/17 05:54:31;;;;;;;0.00;0.00;;;;;;;6.29;89.88;104200.22;5018403;28;20033;-73
2021/12/17 05:56:57;;;;;;;0.00;0.00;;;;;;;6.28;89.53;104198.38;5018732;28;20025;-74
2021/12/17 05:59:23;;;;;;;0.00;0.00;;;;;;;6.24;89.73;104196.25;5017799;28;20034;-74
2021/12/17 06:01:48;;;;;;;0.10;0.10;;;;;;;6.26;89.85;104191.16;5018369;28;20080;-75
2021/12/17 06:04:14;;;;;;;0.10;0.10;;;;;;;6.25;89.82;104195.47;5018298;28;20033;-75
2021/12/17 06:06:45;;;;;;;0.00;0.00;;;;;;;6.25;89.90;104195.47;5050288;28;20076;-74
2021/12/17 06:09:11;;;;;;;0.07;0.07;;;;;;;6.25;89.72;104191.94;5018424;28;20022;-75
2021/12/17 06:11:37;;;;;;;0.10;0.10;;;;;;;6.25;89.72;104198.09;5018119;28;20030;-73
2021/12/17 06:14:03;;;;;;;0.10;0.10;;;;;;;6.25;89.69;104203.28;5017833;28;20026;-73
2021/12/17 06:16:30;;;;;;;0.00;0.00;;;;;;;6.26;89.89;104201.59;5017941;28;20376;-74
2021/12/17 06:18:55;;;;;;;0.03;0.03;;;;;;;6.27;89.74;104208.63;5016528;28;20396;-73
2021/12/17 06:21:21;;;;;;;0.00;0.00;;;;;;;6.27;89.63;104209.56;5017654;28;20037;-73
2021/12/17 06:23:46;;;;;;;0.10;0.10;;;;;;;6.25;89.73;104207.56;5017754;28;20389;-73
2021/12/17 06:26:11;;;;;;;0.00;0.00;;;;;;;6.27;89.29;104216.44;5018161;28;20033;-73
2021/12/17 06:28:37;;;;;;;0.93;0.93;;;;;;;6.28;89.64;104213.06;5016746;28;20445;-74
2021/12/17 06:31:02;;;;;;;0.00;0.00;;;;;;;6.27;89.62;104219.97;5018192;28;20430;-73
2021/12/17 06:33:28;;;;;;;0.20;0.20;;;;;;;6.28;89.38;104213.06;5017311;28;20021;-73
2021/12/17 06:35:53;;;;;;;0.10;0.10;;;;;;;6.28;89.54;104216.59;5018031;28;20388;-73
2021/12/17 06:38:18;;;;;;;0.10;0.10;;;;;;;6.28;90.06;104219.19;5017076;28;20026;-75
2021/12/17 06:40:45;;;;;;;0.10;0.10;;;;;;;6.27;89.52;104221.63;5017714;28;20025;-73
2021/12/17 06:43:10;;;;;;;0.00;0.00;;;;;;;6.27;89.79;104221.63;5016215;28;20037;-73
2021/12/17 06:46:01;;;;;;;0.10;0.10;;;;;;;6.29;89.58;104233.16;5017494;28;20085;-74
2021/12/17 06:48:29;;;;;;;0.00;0.00;;;;;;;6.28;89.89;104227.00;5023452;28;20029;-73
2021/12/17 06:59:10;;;;;;;0.10;0.10;;;;;;;6.28;89.81;104216.59;5016890;28;20041;-73
2021/12/17 07:10:14;;;;;;;0.03;0.03;;;;;;;6.29;89.91;104223.63;5017138;28;20440;-73
2021/12/17 07:17:12;;;;;;;0.00;0.00;;;;;;;6.29;89.80;104225.34;5016719;28;20041;-74
2021/12/17 07:21:24;;;;;;;0.00;0.00;;;;;;;6.31;89.99;104234.22;4987044;28;20117;-72
2021/12/17 07:34:15;;;;;;;0.00;0.00;;;;;;;6.35;89.91;104243.25;5001224;28;20447;-74
2021/12/17 07:39:26;;;;;;;0.00;0.00;;;;;;;6.36;89.98;104238.22;4961706;28;20136;-74
2021/12/17 07:41:52;;;;;;;0.10;0.10;;;;;;;6.37;90.02;104233.91;5002119;28;20050;-73
2021/12/17 07:44:17;;;;;;;0.10;0.10;;;;;;;6.37;89.71;104237.44;5007626;28;20034;-72
2021/12/17 07:46:43;;;;;;;0.00;0.00;;;;;;;6.38;89.82;104246.16;5021488;28;20049;-73
2021/12/17 07:49:08;;;;;;;0.00;0.00;;;;;;;6.38;89.92;104251.34;5020577;28;20042;-72
2021/12/17 07:51:33;;;;;;;0.00;0.00;;;;;;;6.38;89.73;104254.88;5020991;28;20022;-73
2021/12/17 07:53:59;;;;;;;0.00;0.00;;;;;;;6.38;89.77;104259.16;5020983;28;20068;-73
2021/12/17 07:56:26;;;;;;;0.10;0.10;;;;;;;6.39;89.66;104258.41;4989969;28;20365;-74
2021/12/17 07:58:52;;;;;;;0.03;0.03;;;;;;;6.39;89.91;104263.59;5000742;28;20030;-72
2021/12/17 08:01:17;;;;;;;0.00;0.00;;;;;;;6.40;89.59;104262.81;5001355;28;20109;-74
2021/12/17 08:03:43;;;;;;;0.00;0.00;;;;;;;6.40;89.84;104266.38;5000972;28;20113;-73
2021/12/17 08:06:09;;;;;;;0.10;0.10;;;;;;;6.39;89.60;104267.13;5000499;28;20022;-73
2021/12/17 08:08:35;;;;;;;0.00;0.00;;;;;;;6.40;89.56;104268.03;5016149;28;20171;-73
2021/12/17 08:11:01;;;;;;;0.00;0.00;;;;;;;6.41;89.80;104267.31;5020891;28;20062;-73
2021/12/17 08:13:32;;;;;;;0.10;0.10;;;;;;;6.42;89.80;104266.53;5019737;28;20038;-74
2021/12/17 08:16:08;;;;;;;0.00;0.00;;;;;;;6.43;89.67;104278.78;5019937;28;20030;-73
2021/12/17 08:26:39;;;;;;;0.07;0.07;;;;;;;6.45;89.87;104265.16;5020216;28;20026;-73
2021/12/17 08:31:32;;;;;;;0.00;0.00;;;;;;;6.50;89.69;104264.69;5018997;28;20173;-74
2021/12/17 08:33:59;;;;;;;0.00;0.00;;;;;;;6.52;89.70;104261.47;5019160;28;20054;-74
2021/12/17 08:36:25;;;;;;;0.00;0.00;;;;;;;6.55;89.73;104258.25;5005837;28;20129;-72
2021/12/17 08:38:51;;;;;;;0.07;0.07;;;;;;;6.57;89.81;104257.66;5019458;28;20424;-73
2021/12/17 08:41:19;;;;;;;0.00;0.00;;;;;;;6.58;89.88;104251.66;5019599;28;20037;-74
2021/12/17 08:43:44;;;;;;;0.10;0.10;;;;;;;6.60;89.73;104252.72;5019029;28;20061;-74
2021/12/17 08:46:10;;;;;;;0.03;0.03;;;;;;;6.69;89.47;104259.63;5019074;28;20021;-73
2021/12/17 08:48:36;;;;;;;0.00;0.00;;;;;;;6.69;89.48;104250.13;5034984;28;20030;-73
2021/12/17 08:51:02;;;;;;;0.10;0.10;;;;;;;6.69;88.94;104252.75;5019292;28;20442;-73
2021/12/17 08:53:27;;;;;;;0.00;0.00;;;;;;;6.67;89.30;104245.53;5019758;28;20057;-73
2021/12/17 08:55:53;;;;;;;0.00;0.00;;;;;;;6.69;89.43;104246.59;5019797;28;20041;-73
2021/12/17 08:58:18;;;;;;;0.10;0.10;;;;;;;6.71;89.26;104245.06;5019181;28;20033;-73
2021/12/17 09:00:45;;;;;;;0.10;0.10;;;;;;;6.72;89.48;104252.09;5019044;28;20056;-72
2021/12/17 09:03:11;;;;;;;0.10;0.10;;;;;;;6.74;89.32;104250.59;5019658;28;20026;-72
2021/12/17 09:05:39;;;;;;;0.10;0.10;;;;;;;6.75;89.20;104255.03;5018314;28;20381;-73
2021/12/17 09:08:06;;;;;;;0.10;0.10;;;;;;;6.76;89.24;104259.47;5019486;28;20049;-72
2021/12/17 09:10:32;;;;;;;0.20;0.20;;;;;;;6.78;89.13;104263.13;5019399;28;20138;-76
2021/12/17 09:12:58;;;;;;;0.00;0.00;;;;;;;6.79;89.07;104259.75;5018381;28;20068;-73
2021/12/17 09:15:23;;;;;;;0.03;0.03;;;;;;;6.79;89.17;104253.66;5019821;28;20113;-73
2021/12/17 09:17:49;;;;;;;0.13;0.13;;;;;;;6.79;89.10;104251.03;5018389;28;20061;-73
2021/12/17 09:20:15;;;;;;;0.10;0.10;;;;;;;6.80;89.07;104256.38;5019386;28;20038;-72
2021/12/17 09:22:40;;;;;;;0.20;0.20;;;;;;;6.84;89.05;104262.81;5018904;28;20025;-73
2021/12/17 09:25:06;;;;;;;0.10;0.10;;;;;;;6.87;88.92;104261.44;5019091;28;20029;-73
2021/12/17 09:27:32;;;;;;;0.10;0.10;;;;;;;6.90;89.45;104262.53;4999621;28;20022;-74
2021/12/17 09:29:57;;;;;;;1.07;1.07;;;;;;;6.98;88.63;104259.88;5000857;28;20116;-72
2021/12/17 09:32:22;;;;;;;0.00;0.00;;;;;;;6.99;88.70;104266.94;5018208;28;20060;-73
2021/12/17 09:34:48;;;;;;;0.07;0.07;;;;;;;7.00;88.56;104262.66;5014282;28;20032;-72
2021/12/17 09:37:13;;;;;;;0.17;0.17;;;;;;;7.03;88.78;104268.16;5005114;28;20404;-73
2021/12/17 09:39:39;;;;;;;0.10;0.10;;;;;;;7.06;88.60;104264.94;5017795;28;20076;-72
2021/12/17 09:42:04;;;;;;;0.20;0.20;;;;;;;7.06;88.28;104277.97;5018635;28;20057;-73
2021/12/17 09:44:30;;;;;;;0.07;0.07;;;;;;;7.09;88.42;104280.88;5017544;28;20391;-72
2021/12/17 09:46:57;;;;;;;0.70;0.70;;;;;;;7.11;88.48;104282.84;5018789;28;20324;-72
2021/12/17 09:49:23;;;;;;;0.00;0.00;;;;;;;7.14;88.42;104282.22;5050184;28;20073;-72
2021/12/17 09:51:49;;;;;;;0.07;0.07;;;;;;;7.16;88.44;104283.28;5017950;28;20053;-72
2021/12/17 09:54:16;;;;;;;0.03;0.03;;;;;;;7.18;88.40;104287.00;5018979;28;20369;-72
2021/12/17 09:56:42;;;;;;;0.00;0.00;;;;;;;7.20;88.06;104285.44;5017691;28;20045;-73
2021/12/17 09:59:08;;;;;;;0.10;0.10;;;;;;;7.22;88.16;104298.63;5017058;28;20080;-73
2021/12/17 10:01:38;;;;;;;0.20;0.20;;;;;;;7.21;88.14;104296.81;5011875;28;20041;-72
2021/12/17 10:04:26;;;;;;;0.00;0.00;;;;;;;7.22;87.45;104296.94;5015683;28;20125;-73
2021/12/17 10:06:51;;;;;;;0.10;0.10;;;;;;;7.23;87.84;104292.66;5000554;28;20030;-73
2021/12/17 10:09:17;;;;;;;0.10;0.10;;;;;;;7.24;87.69;104295.38;5018431;28;20033;-73
2021/12/17 10:12:06;;;;;;;0.00;0.00;;;;;;;7.26;87.64;104299.09;5018079;28;20053;-72
2021/12/17 10:14:32;;;;;;;0.20;0.20;;;;;;;7.27;87.66;104300.91;5017325;28;20022;-72
2021/12/17 10:17:15;;;;;;;0.10;0.10;;;;;;;7.28;87.38;104297.53;5016846;28;20033;-72
2021/12/17 10:19:47;;;;;;;0.10;0.10;;;;;;;7.26;87.41;104303.38;5011065;28;20140;-73
2021/12/17 10:22:14;;;;;;;0.00;0.00;;;;;;;7.26;87.40;104304.28;5018362;28;20269;-72
2021/12/17 10:24:59;;;;;;;0.00;0.00;;;;;;;7.27;87.07;104310.41;5016688;28;20381;-72
2021/12/17 10:27:29;;;;;;;0.10;0.10;;;;;;;7.25;86.93;104309.34;5017821;28;20029;-72
2021/12/17 10:29:55;;;;;;;0.10;0.10;;;;;;;7.23;87.32;104316.13;5017642;28;20026;-73
2021/12/17 10:32:23;;;;;;;0.10;0.10;;;;;;;7.21;87.19;104321.16;5016707;28;20425;-73
2021/12/17 10:35:07;;;;;;;0.17;0.17;;;;;;;7.20;87.21;104319.34;5017629;28;20403;-72
2021/12/17 10:37:41;;;;;;;0.10;0.10;;;;;;;7.22;87.03;104320.38;5017695;28;20109;-73
2021/12/17 10:40:21;;;;;;;0.20;0.20;;;;;;;7.25;87.42;104315.50;5033465;28;20377;-73
2021/12/17 10:42:59;;;;;;;0.00;0.00;;;;;;;7.28;87.46;104313.19;5016703;28;20022;-72
2021/12/17 10:45:29;;;;;;;0.20;0.20;;;;;;;7.32;87.33;104314.41;5016071;28;20057;-72
2021/12/17 10:51:28;;;;;;;0.00;0.00;;;;;;;7.36;87.48;104315.63;5016919;28;20072;-73
2021/12/17 10:53:55;;;;;;;0.10;0.10;;;;;;;7.33;87.20;104311.03;4997964;28;20042;-73
2021/12/17 10:56:26;;;;;;;0.10;0.10;;;;;;;7.31;86.55;104309.97;5009460;28;20681;-72
2021/12/17 10:58:54;;;;;;;0.10;0.10;;;;;;;7.28;87.09;104313.19;5016871;28;20046;-73
2021/12/17 11:01:32;;;;;;;0.10;0.10;;;;;;;7.26;86.71;104309.50;5016499;28;20057;-73
2021/12/17 11:04:17;;;;;;;0.03;0.03;;;;;;;7.25;86.75;104314.56;5015853;28;20316;-73
2021/12/17 11:06:47;;;;;;;0.00;0.00;;;;;;;7.27;86.98;104313.03;5016914;28;20021;-73
2021/12/17 11:09:31;;;;;;;0.10;0.10;;;;;;;7.31;87.04;104315.16;5017005;28;20108;-73
2021/12/17 11:12:01;;;;;;;0.13;0.13;;;;;;;7.36;87.33;104313.00;5017649;28;20105;-72
2021/12/17 11:14:27;;;;;;;0.10;0.10;;;;;;;7.37;87.07;104309.63;5015751;28;20041;-72
2021/12/17 11:16:52;;;;;;;0.10;0.10;;;;;;;7.33;86.82;104300.59;5015649;28;20040;-72
2021/12/17 11:19:17;;;;;;;0.10;0.10;;;;;;;7.30;86.78;104302.91;5024872;28;20029;-71
2021/12/17 11:21:43;;;;;;;0.10;0.10;;;;;;;7.28;86.99;104302.75;5017517;28;20040;-73
2021/12/17 11:24:08;;;;;;;0.03;0.03;;;;;;;7.27;86.82;104300.91;5016167;28;20076;-73
2021/12/17 11:26:34;;;;;;;0.10;0.10;;;;;;;7.24;86.69;104300.59;5017333;28;20108;-72
2021/12/17 11:29:03;;;;;;;0.20;0.20;;;;;;;7.24;86.82;104302.31;5006927;28;20030;-72
2021/12/17 11:31:33;;;;;;;0.13;0.13;;;;;;;7.24;86.92;104298.00;5000279;28;20034;-73
2021/12/17 11:34:00;;;;;;;0.00;0.00;;;;;;;7.26;86.86;104293.88;5013019;28;20083;-73
2021/12/17 11:36:28;;;;;;;0.20;0.20;;;;;;;7.24;86.84;104298.00;5016124;28;20029;-73
2021/12/17 11:39:16;;;;;;;0.07;0.07;;;;;;;7.25;86.99;104296.31;5017306;28;20044;-73
2021/12/17 11:41:57;;;;;;;0.10;0.10;;;;;;;7.27;87.35;104299.97;5015962;28;20045;-73
2021/12/17 11:44:28;;;;;;;0.07;0.07;;;;;;;7.27;87.23;104290.50;5016618;28;20049;-72
2021/12/17 11:47:05;;;;;;;0.10;0.10;;;;;;;7.27;86.61;104289.56;5012191;28;20092;-74
2021/12/17 11:50:04;;;;;;;0.10;0.10;;;;;;;7.24;86.73;104287.56;5017082;28;20064;-74
2021/12/17 11:52:33;;;;;;;0.20;0.20;;;;;;;7.26;86.75;104290.31;4997723;28;20046;-73
2021/12/17 11:55:24;;;;;;;0.20;0.20;;;;;;;7.24;86.63;104292.78;5016821;28;20029;-73
2021/12/17 11:57:52;;;;;;;0.10;0.10;;;;;;;7.24;86.76;104290.16;5013051;28;20121;-72
2021/12/17 12:00:24;;;;;;;0.10;0.10;;;;;;;7.25;86.50;104286.81;5011730;28;20034;-72
2021/12/17 12:02:50;;;;;;;0.10;0.10;;;;;;;7.31;86.33;104285.56;5016681;28;20079;-72
2021/12/17 12:05:47;;;;;;;0.13;0.13;;;;;;;7.27;85.97;104284.34;5011107;28;20363;-73
2021/12/17 12:08:54;;;;;;;0.10;0.10;;;;;;;7.28;85.83;104287.09;5009543;28;20046;-72
2021/12/17 12:11:22;;;;;;;0.17;0.17;;;;;;;7.27;85.92;104280.06;4942054;29;20027;-72
2021/12/17 12:13:50;;;;;;;0.10;0.10;;;;;;;7.29;85.46;104285.44;4926908;29;20094;-72
2021/12/17 12:16:26;;;;;;;0.20;0.20;;;;;;;7.26;85.40;104286.06;4991834;28;20048;-74
2021/12/17 12:18:57;;;;;;;0.20;0.20;;;;;;;7.27;85.83;104292.16;5018740;28;20025;-73
2021/12/17 12:21:25;;;;;;;0.23;0.23;;;;;;;7.26;85.41;104295.53;5003456;28;20042;-72
2021/12/17 12:24:13;;;;;;;0.10;0.10;;;;;;;7.25;85.35;104296.31;5016602;28;20033;-72
2021/12/17 12:26:42;;;;;;;0.20;0.20;;;;;;;7.21;85.21;104289.88;5000519;28;20299;-73
2021/12/17 12:29:12;;;;;;;0.20;0.20;;;;;;;7.21;85.24;104295.09;5026270;28;20302;-73
2021/12/17 12:31:40;;;;;;;0.10;0.10;;;;;;;7.21;85.38;104299.41;5015533;28;20045;-73
2021/12/17 12:34:13;;;;;;;0.20;0.20;;;;;;;7.15;85.15;104292.81;5018988;28;20034;-72
2021/12/17 12:36:55;;;;;;;0.10;0.10;;;;;;;7.15;84.77;104297.09;5016205;28;20029;-73
2021/12/17 12:39:31;;;;;;;0.20;0.20;;;;;;;7.12;85.49;104307.25;5015422;28;20021;-74
2021/12/17 12:42:07;;;;;;;0.10;0.10;;;;;;;7.10;85.00;104309.69;5018448;28;20025;-72
2021/12/17 12:44:42;;;;;;;0.20;0.20;;;;;;;7.06;85.11;104302.34;5017253;28;20108;-72
2021/12/17 12:47:09;;;;;;;0.20;0.20;;;;;;;7.04;85.07;104296.03;5016785;28;20029;-72
2021/12/17 12:49:49;;;;;;;0.20;0.20;;;;;;;7.03;85.04;104296.81;5010106;28;20018;-71
2021/12/17 12:52:32;;;;;;;0.10;0.10;;;;;;;7.02;85.18;104292.38;5000364;28;20026;-72
2021/12/17 12:55:04;;;;;;;0.10;0.10;;;;;;;6.98;84.74;104290.25;5010589;28;20036;-73
2021/12/17 12:57:41;;;;;;;0.10;0.10;;;;;;;6.96;84.97;104287.47;5014097;28;20061;-73
2021/12/17 13:00:14;;;;;;;0.20;0.20;;;;;;;6.94;85.22;104294.25;5018318;28;20262;-72
2021/12/17 13:02:40;;;;;;;0.17;0.17;;;;;;;6.94;84.71;104281.22;5017076;28;20033;-72
2021/12/17 13:05:07;;;;;;;0.10;0.10;;;;;;;6.94;85.43;104285.50;5019080;28;20129;-72
2021/12/17 13:07:38;;;;;;;0.17;0.17;;;;;;;6.91;85.14;104280.88;5019132;28;20459;-72
2021/12/17 13:10:07;;;;;;;0.10;0.10;;;;;;;6.89;85.08;104276.31;5019019;28;20099;-72
2021/12/17 13:12:35;;;;;;;0.20;0.20;;;;;;;6.87;85.16;104265.75;5012997;28;20045;-73
2021/12/17 13:15:16;;;;;;;0.40;0.40;;;;;;;6.89;85.39;104271.13;5013074;28;20076;-73
2021/12/17 13:20:16;;;;;;;0.20;0.20;;;;;;;6.92;85.27;104274.91;5017750;28;20131;-73
2021/12/17 13:20:55;;;;;;;0.13;0.13;;;;;;;6.94;85.35;104268.19;5016441;28;20041;-73
2021/12/17 13:23:22;;;;;;;0.20;0.20;;;;;;;6.93;85.11;104273.22;5018333;28;20018;-74
2021/12/17 13:26:09;;;;;;;0.10;0.10;;;;;;;6.89;85.38;104273.72;5017418;28;20034;-74
2021/12/17 13:28:52;;;;;;;0.17;0.17;;;;;;;6.85;85.44;104259.47;5016857;28;20062;-73
2021/12/17 13:31:33;;;;;;;0.13;0.13;;;;;;;6.83;85.55;104258.38;5016279;28;20083;-73
2021/12/17 13:33:58;;;;;;;0.10;0.10;;;;;;;6.83;85.64;104251.50;5016083;28;20132;-73
2021/12/17 13:36:24;;;;;;;0.20;0.20;;;;;;;6.81;85.32;104266.06;5016318;28;20113;-74
2021/12/17 13:38:57;;;;;;;0.10;0.10;;;;;;;6.83;85.13;104266.19;5017505;28;20116;-73
2021/12/17 13:41:34;;;;;;;0.10;0.10;;;;;;;6.83;85.35;104259.31;5016004;28;20021;-73
2021/12/17 13:44:00;;;;;;;0.10;0.10;;;;;;;6.83;85.31;104254.09;5017434;28;20041;-74
2021/12/17 13:46:27;;;;;;;0.10;0.10;;;;;;;6.82;85.29;104246.13;5016060;28;20269;-73
2021/12/17 13:48:52;;;;;;;0.20;0.20;;;;;;;6.83;85.14;104254.09;5000169;28;20030;-73
2021/12/17 13:51:18;;;;;;;0.10;0.10;;;;;;;6.87;85.18;104264.03;5011134;28;20032;-72
2021/12/17 13:53:43;;;;;;;0.10;0.10;;;;;;;6.91;84.86;104259.16;5010880;28;20041;-74
2021/12/17 13:56:14;;;;;;;0.20;0.20;;;;;;;6.94;85.03;104260.38;5009481;28;20030;-73
2021/12/17 13:58:40;;;;;;;0.13;0.13;;;;;;;6.96;84.78;104255.28;4997208;28;20438;-73
2021/12/17 14:01:05;;;;;;;0.20;0.20;;;;;;;6.96;84.85;104258.81;5014973;28;20022;-73
2021/12/17 14:03:33;;;;;;;0.20;0.20;;;;;;;6.97;84.66;104267.56;5010424;28;20037;-73
2021/12/17 14:06:19;;;;;;;0.20;0.20;;;;;;;6.97;84.74;104260.66;5016228;28;20028;-72
2021/12/17 14:08:44;;;;;;;0.10;0.10;;;;;;;6.97;84.42;104259.75;5013241;28;20057;-72
2021/12/17 14:11:24;;;;;;;0.30;0.30;;;;;;;6.98;84.64;104254.66;5017160;28;20292;-73
2021/12/17 14:13:50;;;;;;;0.10;0.10;;;;;;;6.99;84.73;104260.81;5014389;28;20022;-74
2021/12/17 14:16:29;;;;;;;0.20;0.20;;;;;;;6.99;84.35;104264.31;5015065;28;20142;-74
2021/12/17 14:18:56;;;;;;;0.10;0.10;;;;;;;6.99;84.66;104266.03;5014638;28;20081;-73
2021/12/17 14:21:27;;;;;;;0.30;0.30;;;;;;;7.00;84.31;104257.44;5017182;28;20188;-75
2021/12/17 14:23:52;;;;;;;0.20;0.20;;;;;;;7.00;84.50;104263.59;5017050;28;20032;-74